sensor_id;sensor_type;location;lat;lon;timestamp;P1;durP1;ratioP1;P2;durP2;ratioP2
74528;SDS011;63009;52.584;5.932;2022-10-16T00:01:15;9.20;;;2.00;;
74528;SDS011;63009;52.584;5.932;2022-10-16T00:03:42;6.45;;;1.83;;
74528;SDS011;63009;52.584;5.932;2022-10-16T00:06:09;6.50;;;2.30;;
74528;SDS011;63009;52.584;5.932;2022-10-16T00:08:35;6.93;;;1.80;;
74528;SDS011;63009;52.584;5.932;2022-10-16T00:11:03;11.55;;;2.00;;
74528;SDS011;63009;52.584;5.932;2022-10-16T00:13:31;9.25;;;2.15;;
74528;SDS011;63009;52.584;5.932;2022-10-16T00:15:57;6.35;;;2.15;;
74528;SDS011;63009;52.584;5.932;2022-10-16T00:18:24;8.68;;;1.80;;
74528;SDS011;63009;52.584;5.932;2022-10-16T00:20:50;7.25;;;2.20;;
74528;SDS011;63009;52.584;5.932;2022-10-16T00:23:15;6.40;;;1.75;;
74528;SDS011;63009;52.584;5.932;2022-10-16T00:25:40;9.02;;;1.98;;
74528;SDS011;63009;52.584;5.932;2022-10-16T00:28:06;7.37;;;2.10;;
74528;SDS011;63009;52.584;5.932;2022-10-16T00:30:31;10.33;;;2.13;;
74528;SDS011;63009;52.584;5.932;2022-10-16T00:32:56;9.40;;;2.33;;
74528;SDS011;63009;52.584;5.932;2022-10-16T00:35:21;11.00;;;2.80;;
74528;SDS011;63009;52.584;5.932;2022-10-16T00:37:47;6.83;;;2.03;;
74528;SDS011;63009;52.584;5.932;2022-10-16T00:40:12;6.47;;;2.00;;
74528;SDS011;63009;52.584;5.932;2022-10-16T00:42:38;7.47;;;2.00;;
74528;SDS011;63009;52.584;5.932;2022-10-16T00:45:03;7.15;;;2.30;;
74528;SDS011;63009;52.584;5.932;2022-10-16T00:47:34;7.97;;;2.13;;
74528;SDS011;63009;52.584;5.932;2022-10-16T00:52:39;8.27;;;2.15;;
74528;SDS011;63009;52.584;5.932;2022-10-16T00:55:09;7.40;;;1.95;;
74528;SDS011;63009;52.584;5.932;2022-10-16T00:57:34;7.10;;;1.92;;
74528;SDS011;63009;52.584;5.932;2022-10-16T01:00:00;7.80;;;1.83;;
74528;SDS011;63009;52.584;5.932;2022-10-16T01:02:28;6.82;;;2.05;;
74528;SDS011;63009;52.584;5.932;2022-10-16T01:04:53;7.13;;;1.97;;
74528;SDS011;63009;52.584;5.932;2022-10-16T01:12:49;7.28;;;2.25;;
74528;SDS011;63009;52.584;5.932;2022-10-16T01:15:27;8.63;;;2.75;;
74528;SDS011;63009;52.584;5.932;2022-10-16T01:18:18;6.93;;;1.90;;
74528;SDS011;63009;52.584;5.932;2022-10-16T01:20:59;8.02;;;2.30;;
74528;SDS011;63009;52.584;5.932;2022-10-16T01:23:34;7.40;;;2.22;;
74528;SDS011;63009;52.584;5.932;2022-10-16T01:28:48;8.57;;;2.45;;
74528;SDS011;63009;52.584;5.932;2022-10-16T01:31:20;8.05;;;2.42;;
74528;SDS011;63009;52.584;5.932;2022-10-16T01:33:51;7.88;;;1.75;;
74528;SDS011;63009;52.584;5.932;2022-10-16T01:36:26;7.38;;;1.85;;
74528;SDS011;63009;52.584;5.932;2022-10-16T01:39:00;6.88;;;2.10;;
74528;SDS011;63009;52.584;5.932;2022-10-16T01:41:32;7.85;;;2.25;;
74528;SDS011;63009;52.584;5.932;2022-10-16T01:44:23;7.63;;;2.10;;
74528;SDS011;63009;52.584;5.932;2022-10-16T01:46:55;7.05;;;2.00;;
74528;SDS011;63009;52.584;5.932;2022-10-16T01:49:23;7.53;;;2.28;;
74528;SDS011;63009;52.584;5.932;2022-10-16T01:51:52;10.95;;;2.30;;
74528;SDS011;63009;52.584;5.932;2022-10-16T01:54:20;8.48;;;2.13;;
74528;SDS011;63009;52.584;5.932;2022-10-16T01:56:50;6.97;;;2.15;;
74528;SDS011;63009;52.584;5.932;2022-10-16T01:59:17;6.80;;;2.70;;
74528;SDS011;63009;52.584;5.932;2022-10-16T02:01:53;6.05;;;2.15;;
74528;SDS011;63009;52.584;5.932;2022-10-16T02:04:28;7.47;;;2.20;;
74528;SDS011;63009;52.584;5.932;2022-10-16T02:06:59;7.75;;;2.15;;
74528;SDS011;63009;52.584;5.932;2022-10-16T02:09:24;6.50;;;2.45;;
74528;SDS011;63009;52.584;5.932;2022-10-16T02:11:51;6.82;;;2.10;;
74528;SDS011;63009;52.584;5.932;2022-10-16T02:14:20;5.80;;;1.92;;
74528;SDS011;63009;52.584;5.932;2022-10-16T02:16:47;6.03;;;2.00;;
74528;SDS011;63009;52.584;5.932;2022-10-16T02:19:13;7.03;;;2.00;;
74528;SDS011;63009;52.584;5.932;2022-10-16T02:21:41;7.53;;;2.05;;
74528;SDS011;63009;52.584;5.932;2022-10-16T02:24:13;9.25;;;2.15;;
74528;SDS011;63009;52.584;5.932;2022-10-16T02:26:57;5.75;;;1.73;;
74528;SDS011;63009;52.584;5.932;2022-10-16T02:29:27;7.28;;;1.92;;
74528;SDS011;63009;52.584;5.932;2022-10-16T02:31:56;6.15;;;1.90;;
74528;SDS011;63009;52.584;5.932;2022-10-16T02:34:26;5.80;;;2.20;;
74528;SDS011;63009;52.584;5.932;2022-10-16T02:36:55;5.53;;;1.55;;
74528;SDS011;63009;52.584;5.932;2022-10-16T02:39:22;8.65;;;1.90;;
74528;SDS011;63009;52.584;5.932;2022-10-16T02:41:47;7.27;;;1.90;;
74528;SDS011;63009;52.584;5.932;2022-10-16T02:44:13;5.45;;;2.30;;
74528;SDS011;63009;52.584;5.932;2022-10-16T02:46:38;5.17;;;1.60;;
74528;SDS011;63009;52.584;5.932;2022-10-16T02:49:03;5.87;;;1.67;;
74528;SDS011;63009;52.584;5.932;2022-10-16T02:51:28;5.97;;;1.57;;
74528;SDS011;63009;52.584;5.932;2022-10-16T02:53:54;7.68;;;2.08;;
74528;SDS011;63009;52.584;5.932;2022-10-16T02:56:19;6.93;;;1.85;;
74528;SDS011;63009;52.584;5.932;2022-10-16T02:58:45;8.03;;;2.00;;
74528;SDS011;63009;52.584;5.932;2022-10-16T03:01:10;10.00;;;2.00;;
74528;SDS011;63009;52.584;5.932;2022-10-16T03:03:37;8.73;;;1.90;;
74528;SDS011;63009;52.584;5.932;2022-10-16T03:06:02;7.60;;;1.95;;
74528;SDS011;63009;52.584;5.932;2022-10-16T03:08:28;7.27;;;2.20;;
74528;SDS011;63009;52.584;5.932;2022-10-16T03:10:54;7.95;;;2.38;;
74528;SDS011;63009;52.584;5.932;2022-10-16T03:13:19;7.27;;;2.13;;
74528;SDS011;63009;52.584;5.932;2022-10-16T03:15:45;10.52;;;2.10;;
74528;SDS011;63009;52.584;5.932;2022-10-16T03:18:11;6.38;;;1.92;;
74528;SDS011;63009;52.584;5.932;2022-10-16T03:20:36;6.47;;;1.97;;
74528;SDS011;63009;52.584;5.932;2022-10-16T03:23:01;7.77;;;2.93;;
74528;SDS011;63009;52.584;5.932;2022-10-16T03:25:27;7.35;;;2.08;;
74528;SDS011;63009;52.584;5.932;2022-10-16T03:27:52;6.95;;;1.83;;
74528;SDS011;63009;52.584;5.932;2022-10-16T03:30:18;8.43;;;1.87;;
74528;SDS011;63009;52.584;5.932;2022-10-16T03:32:44;5.90;;;2.15;;
74528;SDS011;63009;52.584;5.932;2022-10-16T03:35:09;6.10;;;2.00;;
74528;SDS011;63009;52.584;5.932;2022-10-16T03:37:35;7.28;;;2.22;;
74528;SDS011;63009;52.584;5.932;2022-10-16T03:40:01;7.47;;;2.13;;
74528;SDS011;63009;52.584;5.932;2022-10-16T03:42:26;8.07;;;2.30;;
74528;SDS011;63009;52.584;5.932;2022-10-16T03:44:51;6.80;;;2.17;;
74528;SDS011;63009;52.584;5.932;2022-10-16T03:47:17;8.40;;;2.33;;
74528;SDS011;63009;52.584;5.932;2022-10-16T03:49:46;7.18;;;2.42;;
74528;SDS011;63009;52.584;5.932;2022-10-16T03:52:11;7.47;;;2.53;;
74528;SDS011;63009;52.584;5.932;2022-10-16T03:54:36;9.23;;;2.50;;
74528;SDS011;63009;52.584;5.932;2022-10-16T03:57:02;6.70;;;2.20;;
74528;SDS011;63009;52.584;5.932;2022-10-16T03:59:27;7.72;;;2.95;;
74528;SDS011;63009;52.584;5.932;2022-10-16T04:01:52;8.17;;;2.70;;
74528;SDS011;63009;52.584;5.932;2022-10-16T04:04:18;8.10;;;2.70;;
74528;SDS011;63009;52.584;5.932;2022-10-16T04:06:43;8.50;;;2.58;;
74528;SDS011;63009;52.584;5.932;2022-10-16T04:09:08;7.37;;;2.53;;
74528;SDS011;63009;52.584;5.932;2022-10-16T04:11:33;8.30;;;2.93;;
74528;SDS011;63009;52.584;5.932;2022-10-16T04:13:59;7.57;;;2.40;;
74528;SDS011;63009;52.584;5.932;2022-10-16T04:16:24;8.35;;;2.80;;
74528;SDS011;63009;52.584;5.932;2022-10-16T04:18:49;8.03;;;3.10;;
74528;SDS011;63009;52.584;5.932;2022-10-16T04:21:15;7.87;;;2.60;;
74528;SDS011;63009;52.584;5.932;2022-10-16T04:23:40;8.63;;;2.70;;
74528;SDS011;63009;52.584;5.932;2022-10-16T04:26:06;10.10;;;3.38;;
74528;SDS011;63009;52.584;5.932;2022-10-16T04:28:31;9.60;;;2.93;;
74528;SDS011;63009;52.584;5.932;2022-10-16T04:30:57;8.15;;;2.90;;
74528;SDS011;63009;52.584;5.932;2022-10-16T04:33:22;9.45;;;3.08;;
74528;SDS011;63009;52.584;5.932;2022-10-16T04:35:47;10.60;;;3.20;;
74528;SDS011;63009;52.584;5.932;2022-10-16T04:38:13;6.97;;;2.77;;
74528;SDS011;63009;52.584;5.932;2022-10-16T04:40:38;7.97;;;2.93;;
74528;SDS011;63009;52.584;5.932;2022-10-16T04:43:04;8.80;;;2.90;;
74528;SDS011;63009;52.584;5.932;2022-10-16T04:45:29;8.07;;;3.00;;
74528;SDS011;63009;52.584;5.932;2022-10-16T04:47:58;7.17;;;3.00;;
74528;SDS011;63009;52.584;5.932;2022-10-16T04:50:24;9.00;;;3.42;;
74528;SDS011;63009;52.584;5.932;2022-10-16T04:52:49;10.85;;;3.30;;
74528;SDS011;63009;52.584;5.932;2022-10-16T04:55:14;10.50;;;3.10;;
74528;SDS011;63009;52.584;5.932;2022-10-16T04:57:40;7.13;;;2.58;;
74528;SDS011;63009;52.584;5.932;2022-10-16T05:00:06;8.77;;;2.70;;
74528;SDS011;63009;52.584;5.932;2022-10-16T05:02:32;6.55;;;2.50;;
74528;SDS011;63009;52.584;5.932;2022-10-16T05:04:58;8.50;;;3.10;;
74528;SDS011;63009;52.584;5.932;2022-10-16T05:07:23;8.93;;;3.27;;
74528;SDS011;63009;52.584;5.932;2022-10-16T05:09:48;8.30;;;2.90;;
74528;SDS011;63009;52.584;5.932;2022-10-16T05:12:14;7.20;;;2.83;;
74528;SDS011;63009;52.584;5.932;2022-10-16T05:14:39;11.87;;;2.90;;
74528;SDS011;63009;52.584;5.932;2022-10-16T05:17:04;7.43;;;2.93;;
74528;SDS011;63009;52.584;5.932;2022-10-16T05:19:29;7.83;;;2.60;;
74528;SDS011;63009;52.584;5.932;2022-10-16T05:21:55;7.13;;;2.57;;
74528;SDS011;63009;52.584;5.932;2022-10-16T05:24:20;10.88;;;2.97;;
74528;SDS011;63009;52.584;5.932;2022-10-16T05:26:46;10.60;;;3.05;;
74528;SDS011;63009;52.584;5.932;2022-10-16T05:29:12;9.60;;;2.95;;
74528;SDS011;63009;52.584;5.932;2022-10-16T05:31:37;7.93;;;2.63;;
74528;SDS011;63009;52.584;5.932;2022-10-16T05:34:02;8.70;;;2.63;;
74528;SDS011;63009;52.584;5.932;2022-10-16T05:36:27;9.33;;;2.63;;
74528;SDS011;63009;52.584;5.932;2022-10-16T05:38:53;8.33;;;2.90;;
74528;SDS011;63009;52.584;5.932;2022-10-16T05:41:18;7.35;;;2.90;;
74528;SDS011;63009;52.584;5.932;2022-10-16T05:43:48;6.85;;;2.70;;
74528;SDS011;63009;52.584;5.932;2022-10-16T05:46:14;7.80;;;2.50;;
74528;SDS011;63009;52.584;5.932;2022-10-16T05:48:40;9.80;;;2.70;;
74528;SDS011;63009;52.584;5.932;2022-10-16T05:51:06;7.90;;;2.30;;
74528;SDS011;63009;52.584;5.932;2022-10-16T05:53:34;7.55;;;2.75;;
74528;SDS011;63009;52.584;5.932;2022-10-16T05:56:00;6.88;;;2.50;;
74528;SDS011;63009;52.584;5.932;2022-10-16T05:58:30;8.23;;;2.40;;
74528;SDS011;63009;52.584;5.932;2022-10-16T06:00:58;7.93;;;2.88;;
74528;SDS011;63009;52.584;5.932;2022-10-16T06:05:51;7.90;;;2.60;;
74528;SDS011;63009;52.584;5.932;2022-10-16T06:08:17;7.95;;;2.63;;
74528;SDS011;63009;52.584;5.932;2022-10-16T06:10:43;7.18;;;2.45;;
74528;SDS011;63009;52.584;5.932;2022-10-16T06:13:10;6.38;;;2.20;;
74528;SDS011;63009;52.584;5.932;2022-10-16T06:15:36;6.93;;;2.38;;
74528;SDS011;63009;52.584;5.932;2022-10-16T06:18:03;7.25;;;2.35;;
74528;SDS011;63009;52.584;5.932;2022-10-16T06:20:29;7.72;;;2.25;;
74528;SDS011;63009;52.584;5.932;2022-10-16T06:22:54;6.77;;;2.20;;
74528;SDS011;63009;52.584;5.932;2022-10-16T06:25:19;6.93;;;2.17;;
74528;SDS011;63009;52.584;5.932;2022-10-16T06:27:45;6.88;;;2.08;;
74528;SDS011;63009;52.584;5.932;2022-10-16T06:30:10;7.60;;;2.13;;
74528;SDS011;63009;52.584;5.932;2022-10-16T06:32:35;9.67;;;2.13;;
74528;SDS011;63009;52.584;5.932;2022-10-16T06:35:00;8.97;;;2.40;;
74528;SDS011;63009;52.584;5.932;2022-10-16T06:37:26;7.57;;;2.20;;
74528;SDS011;63009;52.584;5.932;2022-10-16T06:39:52;6.80;;;2.10;;
74528;SDS011;63009;52.584;5.932;2022-10-16T06:42:17;6.73;;;2.27;;
74528;SDS011;63009;52.584;5.932;2022-10-16T06:44:43;7.88;;;2.00;;
74528;SDS011;63009;52.584;5.932;2022-10-16T06:47:08;8.77;;;2.28;;
74528;SDS011;63009;52.584;5.932;2022-10-16T06:49:34;5.32;;;2.10;;
74528;SDS011;63009;52.584;5.932;2022-10-16T06:51:59;8.30;;;2.00;;
74528;SDS011;63009;52.584;5.932;2022-10-16T06:54:24;8.30;;;2.60;;
74528;SDS011;63009;52.584;5.932;2022-10-16T06:56:50;6.97;;;1.90;;
74528;SDS011;63009;52.584;5.932;2022-10-16T06:59:16;5.43;;;1.70;;
74528;SDS011;63009;52.584;5.932;2022-10-16T07:01:41;6.43;;;1.40;;
74528;SDS011;63009;52.584;5.932;2022-10-16T07:04:06;5.80;;;1.43;;
74528;SDS011;63009;52.584;5.932;2022-10-16T07:06:32;6.67;;;1.67;;
74528;SDS011;63009;52.584;5.932;2022-10-16T07:09:00;5.63;;;1.23;;
74528;SDS011;63009;52.584;5.932;2022-10-16T07:11:26;5.05;;;1.30;;
74528;SDS011;63009;52.584;5.932;2022-10-16T07:13:51;5.17;;;1.33;;
74528;SDS011;63009;52.584;5.932;2022-10-16T07:16:18;3.20;;;1.20;;
74528;SDS011;63009;52.584;5.932;2022-10-16T07:18:45;3.47;;;1.10;;
74528;SDS011;63009;52.584;5.932;2022-10-16T07:21:19;4.85;;;1.50;;
74528;SDS011;63009;52.584;5.932;2022-10-16T07:23:45;5.82;;;1.40;;
74528;SDS011;63009;52.584;5.932;2022-10-16T07:26:15;5.00;;;1.20;;
74528;SDS011;63009;52.584;5.932;2022-10-16T07:28:40;3.63;;;1.10;;
74528;SDS011;63009;52.584;5.932;2022-10-16T07:31:09;6.00;;;1.30;;
74528;SDS011;63009;52.584;5.932;2022-10-16T07:33:36;6.70;;;1.50;;
74528;SDS011;63009;52.584;5.932;2022-10-16T07:36:02;5.88;;;1.45;;
74528;SDS011;63009;52.584;5.932;2022-10-16T07:38:28;6.65;;;1.80;;
74528;SDS011;63009;52.584;5.932;2022-10-16T07:40:57;5.93;;;1.70;;
74528;SDS011;63009;52.584;5.932;2022-10-16T07:43:26;7.30;;;1.90;;
74528;SDS011;63009;52.584;5.932;2022-10-16T07:45:52;7.45;;;2.00;;
74528;SDS011;63009;52.584;5.932;2022-10-16T07:48:18;8.38;;;2.28;;
74528;SDS011;63009;52.584;5.932;2022-10-16T07:50:44;6.28;;;2.22;;
74528;SDS011;63009;52.584;5.932;2022-10-16T07:53:10;9.25;;;2.00;;
74528;SDS011;63009;52.584;5.932;2022-10-16T07:55:36;6.95;;;2.20;;
74528;SDS011;63009;52.584;5.932;2022-10-16T07:58:02;7.40;;;2.25;;
74528;SDS011;63009;52.584;5.932;2022-10-16T08:00:27;7.20;;;2.20;;
74528;SDS011;63009;52.584;5.932;2022-10-16T08:02:53;7.63;;;2.37;;
74528;SDS011;63009;52.584;5.932;2022-10-16T08:05:18;7.63;;;2.10;;
74528;SDS011;63009;52.584;5.932;2022-10-16T08:07:48;6.27;;;2.00;;
74528;SDS011;63009;52.584;5.932;2022-10-16T08:10:17;6.47;;;1.98;;
74528;SDS011;63009;52.584;5.932;2022-10-16T08:12:44;6.57;;;1.95;;
74528;SDS011;63009;52.584;5.932;2022-10-16T08:15:09;9.32;;;2.08;;
74528;SDS011;63009;52.584;5.932;2022-10-16T08:17:35;6.63;;;1.90;;
74528;SDS011;63009;52.584;5.932;2022-10-16T08:20:00;6.55;;;1.88;;
74528;SDS011;63009;52.584;5.932;2022-10-16T08:22:26;6.68;;;1.90;;
74528;SDS011;63009;52.584;5.932;2022-10-16T08:24:52;8.52;;;2.22;;
74528;SDS011;63009;52.584;5.932;2022-10-16T08:27:17;7.47;;;2.83;;
74528;SDS011;63009;52.584;5.932;2022-10-16T08:29:42;7.10;;;1.80;;
74528;SDS011;63009;52.584;5.932;2022-10-16T08:32:07;11.00;;;2.37;;
74528;SDS011;63009;52.584;5.932;2022-10-16T08:34:33;9.98;;;2.00;;
74528;SDS011;63009;52.584;5.932;2022-10-16T08:36:58;6.90;;;1.43;;
74528;SDS011;63009;52.584;5.932;2022-10-16T08:39:23;6.93;;;1.60;;
74528;SDS011;63009;52.584;5.932;2022-10-16T08:44:44;9.27;;;1.35;;
74528;SDS011;63009;52.584;5.932;2022-10-16T08:50:09;7.05;;;1.48;;
74528;SDS011;63009;52.584;5.932;2022-10-16T08:52:43;7.78;;;1.80;;
74528;SDS011;63009;52.584;5.932;2022-10-16T08:56:10;7.07;;;1.60;;
74528;SDS011;63009;52.584;5.932;2022-10-16T08:58:14;7.47;;;1.50;;
74528;SDS011;63009;52.584;5.932;2022-10-16T09:00:42;5.20;;;1.40;;
74528;SDS011;63009;52.584;5.932;2022-10-16T09:03:22;5.75;;;1.45;;
74528;SDS011;63009;52.584;5.932;2022-10-16T09:06:04;5.07;;;1.48;;
74528;SDS011;63009;52.584;5.932;2022-10-16T09:09:01;6.75;;;1.33;;
74528;SDS011;63009;52.584;5.932;2022-10-16T09:11:59;5.40;;;1.42;;
74528;SDS011;63009;52.584;5.932;2022-10-16T09:23:00;8.07;;;1.50;;
74528;SDS011;63009;52.584;5.932;2022-10-16T09:25:37;8.70;;;1.42;;
74528;SDS011;63009;52.584;5.932;2022-10-16T09:28:04;5.95;;;1.33;;
74528;SDS011;63009;52.584;5.932;2022-10-16T09:30:30;7.45;;;1.60;;
74528;SDS011;63009;52.584;5.932;2022-10-16T09:32:55;9.23;;;1.63;;
74528;SDS011;63009;52.584;5.932;2022-10-16T09:35:31;6.03;;;1.85;;
74528;SDS011;63009;52.584;5.932;2022-10-16T09:38:01;8.55;;;1.65;;
74528;SDS011;63009;52.584;5.932;2022-10-16T09:40:28;8.57;;;2.60;;
74528;SDS011;63009;52.584;5.932;2022-10-16T09:45:53;10.40;;;1.65;;
74528;SDS011;63009;52.584;5.932;2022-10-16T09:48:27;8.52;;;2.03;;
74528;SDS011;63009;52.584;5.932;2022-10-16T09:50:59;9.93;;;1.80;;
74528;SDS011;63009;52.584;5.932;2022-10-16T09:53:36;7.15;;;1.67;;
74528;SDS011;63009;52.584;5.932;2022-10-16T09:56:04;8.98;;;2.05;;
74528;SDS011;63009;52.584;5.932;2022-10-16T09:58:31;8.68;;;2.50;;
74528;SDS011;63009;52.584;5.932;2022-10-16T10:00:58;7.95;;;1.98;;
74528;SDS011;63009;52.584;5.932;2022-10-16T10:03:34;10.63;;;2.33;;
74528;SDS011;63009;52.584;5.932;2022-10-16T10:06:06;9.68;;;2.35;;
74528;SDS011;63009;52.584;5.932;2022-10-16T10:08:51;12.98;;;1.95;;
74528;SDS011;63009;52.584;5.932;2022-10-16T10:11:38;9.90;;;1.90;;
74528;SDS011;63009;52.584;5.932;2022-10-16T10:14:06;8.05;;;1.58;;
74528;SDS011;63009;52.584;5.932;2022-10-16T10:16:39;10.43;;;1.95;;
74528;SDS011;63009;52.584;5.932;2022-10-16T10:19:08;7.07;;;1.58;;
74528;SDS011;63009;52.584;5.932;2022-10-16T10:21:39;8.75;;;1.65;;
74528;SDS011;63009;52.584;5.932;2022-10-16T10:24:04;9.83;;;2.13;;
74528;SDS011;63009;52.584;5.932;2022-10-16T10:26:30;7.40;;;1.52;;
74528;SDS011;63009;52.584;5.932;2022-10-16T10:37:00;9.80;;;1.88;;
74528;SDS011;63009;52.584;5.932;2022-10-16T10:42:24;9.70;;;2.05;;
74528;SDS011;63009;52.584;5.932;2022-10-16T10:48:10;10.25;;;1.80;;
74528;SDS011;63009;52.584;5.932;2022-10-16T10:54:02;9.20;;;1.70;;
74528;SDS011;63009;52.584;5.932;2022-10-16T10:59:37;10.90;;;1.67;;
74528;SDS011;63009;52.584;5.932;2022-10-16T11:02:18;7.63;;;1.50;;
74528;SDS011;63009;52.584;5.932;2022-10-16T11:07:37;10.57;;;1.85;;
74528;SDS011;63009;52.584;5.932;2022-10-16T11:10:13;8.43;;;1.75;;
74528;SDS011;63009;52.584;5.932;2022-10-16T11:12:41;8.43;;;1.50;;
74528;SDS011;63009;52.584;5.932;2022-10-16T11:15:17;9.85;;;2.05;;
74528;SDS011;63009;52.584;5.932;2022-10-16T11:17:51;11.23;;;1.90;;
74528;SDS011;63009;52.584;5.932;2022-10-16T11:20:22;11.20;;;1.95;;
74528;SDS011;63009;52.584;5.932;2022-10-16T11:22:58;8.85;;;1.70;;
74528;SDS011;63009;52.584;5.932;2022-10-16T11:25:28;10.02;;;1.70;;
74528;SDS011;63009;52.584;5.932;2022-10-16T11:30:35;12.48;;;2.08;;
74528;SDS011;63009;52.584;5.932;2022-10-16T11:38:26;8.07;;;1.63;;
74528;SDS011;63009;52.584;5.932;2022-10-16T11:40:56;10.55;;;1.80;;
74528;SDS011;63009;52.584;5.932;2022-10-16T11:43:29;11.35;;;1.88;;
74528;SDS011;63009;52.584;5.932;2022-10-16T11:46:03;9.88;;;1.58;;
74528;SDS011;63009;52.584;5.932;2022-10-16T11:48:36;10.00;;;1.70;;
74528;SDS011;63009;52.584;5.932;2022-10-16T11:51:09;6.35;;;1.52;;
74528;SDS011;63009;52.584;5.932;2022-10-16T11:56:12;8.27;;;1.42;;
74528;SDS011;63009;52.584;5.932;2022-10-16T12:01:31;10.25;;;1.70;;
74528;SDS011;63009;52.584;5.932;2022-10-16T12:04:12;7.65;;;1.42;;
74528;SDS011;63009;52.584;5.932;2022-10-16T12:06:55;9.32;;;1.50;;
74528;SDS011;63009;52.584;5.932;2022-10-16T12:09:28;8.35;;;1.88;;
74528;SDS011;63009;52.584;5.932;2022-10-16T12:11:56;12.85;;;1.60;;
74528;SDS011;63009;52.584;5.932;2022-10-16T12:16:54;7.30;;;1.38;;
74528;SDS011;63009;52.584;5.932;2022-10-16T12:19:25;7.05;;;1.38;;
74528;SDS011;63009;52.584;5.932;2022-10-16T12:21:54;10.15;;;1.88;;
74528;SDS011;63009;52.584;5.932;2022-10-16T12:24:26;7.88;;;2.53;;
74528;SDS011;63009;52.584;5.932;2022-10-16T12:26:56;9.20;;;1.52;;
74528;SDS011;63009;52.584;5.932;2022-10-16T12:29:40;9.57;;;2.00;;
74528;SDS011;63009;52.584;5.932;2022-10-16T12:32:26;11.15;;;1.73;;
74528;SDS011;63009;52.584;5.932;2022-10-16T12:35:02;9.48;;;2.42;;
74528;SDS011;63009;52.584;5.932;2022-10-16T12:37:31;8.88;;;1.40;;
74528;SDS011;63009;52.584;5.932;2022-10-16T12:39:59;7.03;;;2.33;;
74528;SDS011;63009;52.584;5.932;2022-10-16T12:42:36;10.40;;;1.95;;
74528;SDS011;63009;52.584;5.932;2022-10-16T12:45:12;6.35;;;1.30;;
74528;SDS011;63009;52.584;5.932;2022-10-16T12:47:49;6.25;;;1.20;;
74528;SDS011;63009;52.584;5.932;2022-10-16T12:50:27;7.57;;;1.55;;
74528;SDS011;63009;52.584;5.932;2022-10-16T12:52:56;10.15;;;1.45;;
74528;SDS011;63009;52.584;5.932;2022-10-16T12:55:22;7.70;;;1.40;;
74528;SDS011;63009;52.584;5.932;2022-10-16T13:00:42;8.00;;;1.60;;
74528;SDS011;63009;52.584;5.932;2022-10-16T13:03:21;11.15;;;2.13;;
74528;SDS011;63009;52.584;5.932;2022-10-16T13:08:38;10.70;;;1.50;;
74528;SDS011;63009;52.584;5.932;2022-10-16T13:19:23;8.70;;;1.60;;
74528;SDS011;63009;52.584;5.932;2022-10-16T13:22:03;9.52;;;1.92;;
74528;SDS011;63009;52.584;5.932;2022-10-16T13:27:39;6.13;;;1.50;;
74528;SDS011;63009;52.584;5.932;2022-10-16T13:30:18;8.10;;;2.00;;
74528;SDS011;63009;52.584;5.932;2022-10-16T13:33:06;11.75;;;1.70;;
74528;SDS011;63009;52.584;5.932;2022-10-16T13:35:46;7.53;;;1.45;;
74528;SDS011;63009;52.584;5.932;2022-10-16T13:38:17;9.73;;;1.70;;
74528;SDS011;63009;52.584;5.932;2022-10-16T13:40:51;6.25;;;1.80;;
74528;SDS011;63009;52.584;5.932;2022-10-16T13:43:20;6.90;;;1.65;;
74528;SDS011;63009;52.584;5.932;2022-10-16T13:45:55;8.70;;;1.58;;
74528;SDS011;63009;52.584;5.932;2022-10-16T13:48:22;6.85;;;1.58;;
74528;SDS011;63009;52.584;5.932;2022-10-16T13:50:57;9.45;;;2.08;;
74528;SDS011;63009;52.584;5.932;2022-10-16T13:53:27;5.82;;;1.60;;
74528;SDS011;63009;52.584;5.932;2022-10-16T13:55:55;9.07;;;2.15;;
74528;SDS011;63009;52.584;5.932;2022-10-16T13:58:21;7.60;;;1.88;;
74528;SDS011;63009;52.584;5.932;2022-10-16T14:00:53;7.63;;;1.73;;
74528;SDS011;63009;52.584;5.932;2022-10-16T14:03:30;6.72;;;1.77;;
74528;SDS011;63009;52.584;5.932;2022-10-16T14:06:01;8.30;;;1.40;;
74528;SDS011;63009;52.584;5.932;2022-10-16T14:08:29;8.40;;;1.60;;
74528;SDS011;63009;52.584;5.932;2022-10-16T14:10:56;11.05;;;1.92;;
74528;SDS011;63009;52.584;5.932;2022-10-16T14:16:20;9.15;;;1.63;;
74528;SDS011;63009;52.584;5.932;2022-10-16T14:18:54;8.52;;;1.50;;
74528;SDS011;63009;52.584;5.932;2022-10-16T14:21:22;10.15;;;1.73;;
74528;SDS011;63009;52.584;5.932;2022-10-16T14:23:48;8.55;;;1.50;;
74528;SDS011;63009;52.584;5.932;2022-10-16T14:26:14;7.90;;;1.70;;
74528;SDS011;63009;52.584;5.932;2022-10-16T14:28:42;8.52;;;1.50;;
74528;SDS011;63009;52.584;5.932;2022-10-16T14:33:57;7.32;;;2.17;;
74528;SDS011;63009;52.584;5.932;2022-10-16T14:36:23;8.57;;;1.65;;
74528;SDS011;63009;52.584;5.932;2022-10-16T14:38:59;7.85;;;1.70;;
74528;SDS011;63009;52.584;5.932;2022-10-16T14:41:42;7.07;;;1.77;;
74528;SDS011;63009;52.584;5.932;2022-10-16T14:44:10;7.97;;;1.88;;
74528;SDS011;63009;52.584;5.932;2022-10-16T14:46:37;7.38;;;1.45;;
74528;SDS011;63009;52.584;5.932;2022-10-16T14:51:41;12.65;;;1.70;;
74528;SDS011;63009;52.584;5.932;2022-10-16T14:54:08;8.52;;;1.55;;
74528;SDS011;63009;52.584;5.932;2022-10-16T14:59:13;7.28;;;1.50;;
74528;SDS011;63009;52.584;5.932;2022-10-16T15:01:42;11.23;;;1.73;;
74528;SDS011;63009;52.584;5.932;2022-10-16T15:04:09;6.78;;;1.63;;
74528;SDS011;63009;52.584;5.932;2022-10-16T15:06:36;8.43;;;1.65;;
74528;SDS011;63009;52.584;5.932;2022-10-16T15:09:01;10.77;;;2.13;;
74528;SDS011;63009;52.584;5.932;2022-10-16T15:11:27;8.40;;;1.50;;
74528;SDS011;63009;52.584;5.932;2022-10-16T15:13:52;6.97;;;1.40;;
74528;SDS011;63009;52.584;5.932;2022-10-16T15:16:17;6.47;;;1.43;;
74528;SDS011;63009;52.584;5.932;2022-10-16T15:18:43;10.20;;;1.60;;
74528;SDS011;63009;52.584;5.932;2022-10-16T15:21:09;8.90;;;1.58;;
74528;SDS011;63009;52.584;5.932;2022-10-16T15:23:51;8.60;;;1.50;;
74528;SDS011;63009;52.584;5.932;2022-10-16T15:26:17;8.27;;;1.80;;
74528;SDS011;63009;52.584;5.932;2022-10-16T15:28:42;9.63;;;1.83;;
74528;SDS011;63009;52.584;5.932;2022-10-16T15:31:07;8.50;;;2.23;;
74528;SDS011;63009;52.584;5.932;2022-10-16T15:33:33;6.90;;;1.53;;
74528;SDS011;63009;52.584;5.932;2022-10-16T15:35:59;10.40;;;1.80;;
74528;SDS011;63009;52.584;5.932;2022-10-16T15:38:25;7.78;;;1.60;;
74528;SDS011;63009;52.584;5.932;2022-10-16T15:40:52;8.15;;;2.03;;
74528;SDS011;63009;52.584;5.932;2022-10-16T15:43:17;7.97;;;1.97;;
74528;SDS011;63009;52.584;5.932;2022-10-16T15:45:43;6.53;;;1.58;;
74528;SDS011;63009;52.584;5.932;2022-10-16T15:48:13;10.68;;;2.55;;
74528;SDS011;63009;52.584;5.932;2022-10-16T15:50:38;7.20;;;1.60;;
74528;SDS011;63009;52.584;5.932;2022-10-16T15:53:04;7.68;;;1.73;;
74528;SDS011;63009;52.584;5.932;2022-10-16T15:55:29;8.82;;;2.13;;
74528;SDS011;63009;52.584;5.932;2022-10-16T15:57:55;7.03;;;2.13;;
74528;SDS011;63009;52.584;5.932;2022-10-16T16:00:20;8.93;;;2.75;;
74528;SDS011;63009;52.584;5.932;2022-10-16T16:02:50;10.50;;;2.25;;
74528;SDS011;63009;52.584;5.932;2022-10-16T16:05:17;9.52;;;2.05;;
74528;SDS011;63009;52.584;5.932;2022-10-16T16:07:43;13.23;;;2.10;;
74528;SDS011;63009;52.584;5.932;2022-10-16T16:10:09;8.15;;;2.13;;
74528;SDS011;63009;52.584;5.932;2022-10-16T16:12:35;8.90;;;2.20;;
74528;SDS011;63009;52.584;5.932;2022-10-16T16:15:01;8.48;;;2.10;;
74528;SDS011;63009;52.584;5.932;2022-10-16T16:17:28;7.78;;;1.75;;
74528;SDS011;63009;52.584;5.932;2022-10-16T16:19:54;11.13;;;2.20;;
74528;SDS011;63009;52.584;5.932;2022-10-16T16:22:20;9.30;;;1.80;;
74528;SDS011;63009;52.584;5.932;2022-10-16T16:24:45;7.03;;;1.87;;
74528;SDS011;63009;52.584;5.932;2022-10-16T16:27:10;7.27;;;1.70;;
74528;SDS011;63009;52.584;5.932;2022-10-16T16:29:39;8.48;;;2.28;;
74528;SDS011;63009;52.584;5.932;2022-10-16T16:32:04;9.18;;;2.05;;